x

Santa Maria - 21nm Nw Of Point Arguello, Ca (46011) Wave Buoy

10:50am - Wed 28th Sep 2016 All times are PDT. -7 hours from GMT.

  • Sig Wave height 4.6ft
  • Swell Direction
  • Peak Period 10s
  • Average Period 7s
  • Wind
    2mph, 4mph gusts
  • Sea Temp 62°f
  • Air Temp 56°f
  • Sea Pressure 1014.7mb
  • Santa Maria - 21nm Nw Of Point Arguello, Ca
  • Santa Maria - 21nm Nw Of Point Arguello, Ca

More Historic Weather Station data

Upgrade to MSW Pro to gain access to the past 30 days of data for over 8000 Wavebouys and Weather Stations around the globe.

Join Pro

Comparision Forecast

View Surf forecast
   
Wed 09/28 10:50am 4.5ft 10s 7s 2 4 mph 1014.7mb 62f 56f
9:50am 5ft 10s 7s 2 4 mph 1014.3mb 62f 56f
8:50am 5ft 9s 7s 2 4 mph 1014mb 61f 56f
7:50am 6ft 10s 8s 4 7 mph 1013.5mb 59f 56f
6:50am 5.5ft 10s 8s 4 9 mph 1013.1mb 58f 56f
5:50am 4.5ft 9s 7s 7
mph
1012.8mb 58f 56f
4:50am 5ft 11s 7s 7 9 mph 1012.7mb 58f 56f
3:50am 5.5ft 10s 7s 7
mph
1012.5mb 58f 56f
2:50am 5ft 9s 7s 9 11 mph 1012.7mb 59f 57f
1:50am 5.5ft 10s 7s 9 11 mph 1013mb 59f 57f
12:50am 5.5ft 10s 7s 9 11 mph 1013mb 60f 58f
Tue 09/27 11:50pm 5ft 10s 6s 7 9 mph 1012.6mb 60f 61f
10:50pm 4.5ft 11s 6s 7 11 mph 1012.1mb 61f 62f
9:50pm 4.5ft 10s 6s 11 13 mph 1011.9mb 61f 62f
8:50pm 4.5ft 10s 6s 4 9 mph 1011.7mb 61f 62f
7:50pm 4.5ft 10s 6s 4 7 mph 1011.3mb 61f 61f
6:50pm 4.5ft 11s 6s 4 9 mph 1010.7mb 61f 62f
5:50pm 5ft 11s 5s 11 20 mph 1009.8mb 61f 63f
4:50pm 4.5ft 14s 5s 16 18 mph 1009.4mb 61f 63f
3:50pm 4ft 15s 5s 20 22 mph 1009.2mb 61f 64f
2:50pm 4ft 15s 7s 18 22 mph 1009.3mb 62f 64f
1:50pm 3.5ft 14s 8s 16 18 mph 1009.9mb 62f 65f
12:50pm 3.5ft 15s 9s 13 16 mph 1010.6mb 62f 66f
11:50am 3.5ft 15s 9s 9 11 mph 1011.5mb 62f 66f
10:50am 3.5ft 9s 9s 7 9 mph 1012.2mb 62f 64f
9:50am 4ft 15s 9s 7 9 mph 1012.5mb 61f 65f
8:50am 3.5ft 10s 8s 7 9 mph 1012.3mb 61f 63f
7:50am 3.5ft 10s 8s 4 7 mph 1012.2mb 61f 63f
6:50am 3.5ft 15s 9s 4 7 mph 1012.1mb 61f 62f
5:50am 3.5ft 14s 9s 4 7 mph 1011.9mb 61f 64f
4:50am 3.5ft 10s 9s 7
mph
1012mb 61f 63f
3:50am 3.5ft 15s 9s 4 7 mph 1012mb 61f 62f
2:50am 3.5ft 15s 9s 9
mph
1012.3mb 61f 63f
1:50am 3.5ft 15s 9s 4 7 mph 1012.8mb 61f 64f
12:50am 3.5ft 15s 9s 9 11 mph 1012.8mb 61f 65f
Mon 09/26 11:50pm 3.5ft 15s 8s 4 7 mph 1013.4mb 61f 64f
10:50pm 3.5ft 15s 8s 7
mph
1013.1mb 62f 65f
9:50pm 4ft 15s 8s 4
mph
1013.2mb 62f 64f
8:50pm 4.5ft 15s 9s 7 9 mph 1012.9mb 61f 64f
7:50pm 4ft 9s 8s 7
mph
1012.5mb 61f 64f
6:50pm 4ft 15s 8s 7
mph
1012.5mb 62f 65f
5:50pm 4.5ft 10s 8s 7 9 mph 1012.6mb 62f 65f
4:50pm 4.5ft 15s 8s 9 11 mph 1012.6mb 63f 67f
3:50pm 4.5ft 10s 8s 9
mph
1013mb 62f 67f
2:50pm 5ft 10s 8s 9 13 mph 1013.4mb 63f 69f
1:50pm 4.5ft 15s 8s 7 9 mph 1014mb 63f 69f
12:50pm 4.5ft 15s 8s 7
mph
1014.6mb 62f 70f
11:50am 4.5ft 10s 8s 7 9 mph 1015mb 62f 69f
10:50am 5ft 9s 8s 4 7 mph 1015.3mb 61f 66f
9:50am 4.5ft 15s 8s 7 9 mph 1015.3mb 61f 64f
8:50am 5ft 15s 8s 4 7 mph 1015mb 60f 64f
7:50am 5ft 10s 8s 9
mph
1014.9mb 60f 64f
6:50am 5ft 10s 8s 4 7 mph 1014.5mb 61f 62f
5:50am 5ft 11s 8s 7 9 mph 1014.2mb 61f 62f
4:50am 5ft 15s 8s 9
mph
1013.7mb 61f 62f
3:50am 5ft 15s 8s 4 7 mph 1014.1mb 61f 62f
2:50am 5ft 15s 8s 4 7 mph 1014.5mb 61f 62f
1:50am 5.5ft 15s 8s 4
mph
1015mb 61f 63f
12:50am 5ft 15s 8s 7 9 mph 1015mb 61f 63f
Sun 09/25 11:50pm 5ft 16s 8s 7 9 mph 1015.1mb 62f 63f
10:50pm 5ft 16s 8s 4
mph
1015.6mb 62f 63f
9:50pm 4.5ft 10s 8s 9
mph
1015.4mb 62f 64f
8:50pm 5ft 15s 8s 9 11 mph 1015.2mb 61f 64f
7:50pm 4.5ft 16s 8s 11 13 mph 1014.6mb 61f 64f
6:50pm 5ft 16s 8s 11
mph
1014.5mb 62f 64f
5:50pm 5.5ft 16s 8s 9 11 mph 1014.5mb 62f 64f
4:50pm 5.5ft 16s 8s 11 13 mph 1014.6mb 63f 64f
3:50pm 5ft 16s 8s 11 13 mph 1015.1mb 63f 64f
2:50pm 5.5ft 16s 8s 9 11 mph 1015.7mb 63f 65f
1:50pm 5ft 16s 8s 7 9 mph 1016.5mb 63f 65f
12:50pm 5.5ft 15s 8s 4 7 mph 1017mb 62f 66f
11:50am 6ft 11s 7s 4
mph
1017.1mb 61f 65f
10:50am 6ft 16s 8s 2
mph
1017.3mb 61f 64f
9:50am 6ft 16s 8s  -  2 mph 1017.4mb 60f 63f
8:50am 5ft 16s 8s 2 4 mph 1017mb 60f 62f
7:50am 5ft 16s 8s 4
mph
1016.6mb 60f 61f
6:50am 5ft 16s 8s 4 7 mph 1015.9mb 60f 61f
5:50am 5.5ft 16s 8s 9
mph
1015.4mb 60f 61f
4:50am 6ft 16s 8s 7
mph
1015.2mb 60f 62f
3:50am 5ft 16s 8s 4 7 mph 1015.3mb 60f 63f
2:50am 5ft 16s 7s 9
mph
1015.5mb 60f 62f
1:50am 5.5ft 16s 8s 11
mph
1016.1mb 60f 61f
12:50am 5ft 16s 7s 11 13 mph 1016.3mb 60f 61f
Sat 09/24 11:50pm 5ft 16s 7s 13 16 mph 1016.6mb 60f 60f
10:50pm 5ft 16s 7s 13 16 mph 1016.6mb 60f 60f
9:50pm 4.5ft 16s 7s 16 18 mph 1016.5mb 60f 60f
8:50pm 5ft 16s 7s 16 20 mph 1016.4mb 60f 61f
7:50pm 5ft 17s 7s 13 16 mph 1015.8mb 60f 61f